Time;durP1;ratioP1;P1;durP2;ratioP2;P2;SDS_P1;SDS_P2;PMS_P1;PMS_P2;Temp;Humidity;BMP_temperature;BMP_pressure;BME280_temperature;BME280_humidity;BME280_pressure;Samples;Min_cycle;Max_cycle;Signal;HPM_P1;HPM_P2
2022/06/14 00:01:32;;;;;;;11.73;2.65;;;;;;;11.53;71.35;100663.41;6236460;23;20000;-79
2022/06/14 00:03:58;;;;;;;6.95;2.25;;;;;;;11.50;71.57;100660.34;6236648;23;20221;-79
2022/06/14 00:06:26;;;;;;;5.32;2.67;;;;;;;11.35;72.77;100660.94;6236089;23;20008;-79
2022/06/14 00:08:52;;;;;;;10.90;2.70;;;;;;;11.33;72.29;100655.72;6236211;23;20013;-79
2022/06/14 00:11:20;;;;;;;7.75;2.40;;;;;;;11.27;72.50;100657.53;6208934;23;20106;-79
2022/06/14 00:13:46;;;;;;;7.15;2.42;;;;;;;11.27;72.89;100665.72;6236084;23;20010;-80
2022/06/14 00:16:12;;;;;;;8.20;2.65;;;;;;;11.25;73.65;100654.22;6236108;23;20442;-79
2022/06/14 00:18:37;;;;;;;7.30;2.15;;;;;;;11.14;74.02;100663.31;6235993;23;20015;-79
2022/06/14 00:21:04;;;;;;;7.03;2.67;;;;;;;11.23;73.42;100652.84;6235974;23;20644;-79
2022/06/14 00:23:30;;;;;;;7.47;2.90;;;;;;;11.23;73.98;100645.47;6235786;23;20461;-78
2022/06/14 00:25:58;;;;;;;7.53;1.90;;;;;;;11.51;72.82;100646.44;6235623;23;20012;-80
2022/06/14 00:28:26;;;;;;;5.22;2.55;;;;;;;11.40;73.25;100655.56;6236374;23;20015;-78
2022/06/14 00:30:54;;;;;;;9.95;2.25;;;;;;;11.40;73.63;100644.63;6236279;23;20301;-79
2022/06/14 00:33:20;;;;;;;5.90;2.88;;;;;;;11.27;73.93;100652.09;6235950;23;20334;-79
2022/06/14 00:35:46;;;;;;;9.32;2.80;;;;;;;11.29;74.54;100649.94;6209270;23;20012;-79
2022/06/14 00:38:13;;;;;;;9.23;3.55;;;;;;;11.26;73.69;100642.25;6209125;23;20008;-79
2022/06/14 00:40:41;;;;;;;8.90;2.33;;;;;;;11.05;74.55;100650.09;6236020;23;20043;-79
2022/06/14 00:43:15;;;;;;;8.80;3.40;;;;;;;11.24;74.20;100641.66;6209241;23;20342;-80
2022/06/14 00:45:41;;;;;;;11.20;2.90;;;;;;;11.17;74.42;100650.00;6235784;23;20046;-79
2022/06/14 00:48:15;;;;;;;6.80;2.93;;;;;;;11.07;74.52;100639.75;6236305;23;20016;-79
2022/06/14 00:51:09;;;;;;;5.78;2.55;;;;;;;11.15;73.94;100643.13;6236555;23;20225;-79
2022/06/14 00:54:04;;;;;;;4.97;2.00;;;;;;;11.14;74.36;100636.03;6223684;23;20047;-79
2022/06/14 00:56:40;;;;;;;;;;;;;;;11.17;74.58;100635.53;6215556;23;20012;-79
2022/06/14 00:59:28;;;;;;;3.42;2.22;;;;;;;11.19;74.44;100636.09;6235209;23;19911;-79
2022/06/14 01:02:06;;;;;;;13.98;3.17;;;;;;;10.91;75.10;100635.94;6236608;23;20301;-80
2022/06/14 01:04:32;;;;;;;6.15;2.60;;;;;;;10.85;75.36;100640.47;6235583;23;20012;-80
2022/06/14 01:07:10;;;;;;;8.30;2.55;;;;;;;10.86;75.52;100633.13;6236132;23;20015;-79
2022/06/14 01:09:41;;;;;;;8.15;2.80;;;;;;;10.83;75.28;100648.06;6236103;23;20043;-80
2022/06/14 01:12:10;;;;;;;7.38;2.60;;;;;;;10.86;75.58;100630.41;6235515;23;20442;-80
2022/06/14 01:15:06;;;;;;;9.02;3.40;;;;;;;10.62;76.53;100636.78;6235555;23;20004;-79
2022/06/14 01:17:35;;;;;;;4.00;1.83;;;;;;;10.49;76.98;100634.34;6235834;23;20000;-79
2022/06/14 01:20:01;;;;;;;11.63;3.47;;;;;;;10.66;76.83;100631.66;6235582;23;20015;-79
2022/06/14 01:22:29;;;;;;;6.28;2.65;;;;;;;10.49;77.08;100635.19;6235760;23;20047;-79
2022/06/14 01:24:55;;;;;;;8.63;2.72;;;;;;;10.38;77.67;100625.94;6235375;23;20365;-79
2022/06/14 01:27:23;;;;;;;10.43;3.75;;;;;;;10.51;77.12;100624.03;6235341;23;20107;-80
2022/06/14 01:29:56;;;;;;;6.15;2.92;;;;;;;10.68;76.59;100631.44;6235500;23;20008;-78
2022/06/14 01:32:25;;;;;;;20.33;3.78;;;;;;;10.74;76.33;100623.09;6235525;23;20015;-80
2022/06/14 01:34:56;;;;;;;10.77;3.58;;;;;;;10.69;76.50;100614.81;6235521;23;20458;-80
2022/06/14 01:37:22;;;;;;;6.90;2.67;;;;;;;10.58;77.04;100619.25;6235257;23;20008;-79
2022/06/14 01:39:48;;;;;;;9.52;2.22;;;;;;;10.57;77.34;100617.59;6236095;23;20008;-79
2022/06/14 01:42:31;;;;;;;8.10;3.47;;;;;;;10.50;77.31;100633.25;6235103;23;20019;-79
2022/06/14 01:45:09;;;;;;;11.20;4.40;;;;;;;10.71;76.86;100633.66;6235812;23;20012;-79
2022/06/14 01:47:42;;;;;;;6.28;2.42;;;;;;;10.89;76.12;100635.34;6236016;23;20386;-79
2022/06/14 01:53:32;;;;;;;11.30;2.85;;;;;;;11.11;74.93;100637.34;6235424;23;20325;-79
2022/06/14 01:56:13;;;;;;;14.43;3.15;;;;;;;10.69;76.75;100633.06;6234742;23;20177;-79
2022/06/14 01:59:03;;;;;;;6.80;3.10;;;;;;;10.60;77.43;100636.19;6235472;23;20022;-79
2022/06/14 02:01:37;;;;;;;5.47;2.42;;;;;;;10.43;78.15;100635.28;6235157;23;20008;-78
2022/06/14 02:07:10;;;;;;;6.00;2.90;;;;;;;10.40;78.66;100628.41;6235174;23;20022;-79
2022/06/14 02:09:48;;;;;;;8.50;3.80;;;;;;;10.51;78.04;100629.47;6235490;23;20480;-79
2022/06/14 02:12:19;;;;;;;6.55;3.47;;;;;;;10.36;78.53;100624.50;6234605;23;20011;-79
2022/06/14 02:14:58;;;;;;;5.57;2.60;;;;;;;10.21;79.17;100625.03;6235484;23;20061;-79
2022/06/14 02:17:31;;;;;;;15.55;3.67;;;;;;;10.24;78.51;100619.09;6235189;23;20008;-80
2022/06/14 02:20:01;;;;;;;24.35;5.20;;;;;;;10.22;79.01;100626.69;6235408;23;20027;-79
2022/06/14 02:22:35;;;;;;;11.05;2.83;;;;;;;10.42;78.18;100637.19;6235023;23;20009;-80
2022/06/14 02:25:14;;;;;;;10.77;2.75;;;;;;;10.43;78.00;100629.84;6234764;23;20059;-79
2022/06/14 02:27:55;;;;;;;7.55;3.00;;;;;;;10.36;78.52;100628.06;6235226;23;20208;-79
2022/06/14 02:30:28;;;;;;;8.15;3.03;;;;;;;10.15;78.50;100627.66;6208092;23;20019;-79
2022/06/14 02:33:02;;;;;;;6.22;3.35;;;;;;;10.23;78.24;100623.72;6235379;23;20430;-78
2022/06/14 02:35:43;;;;;;;8.68;2.65;;;;;;;10.23;78.45;100617.47;6234813;23;20115;-79
2022/06/14 02:38:19;;;;;;;9.38;2.97;;;;;;;10.21;78.85;100619.59;6235241;23;20012;-79
2022/06/14 02:40:51;;;;;;;11.43;3.20;;;;;;;10.26;78.73;100620.53;6235098;23;20016;-79
2022/06/14 02:43:27;;;;;;;9.45;2.90;;;;;;;10.30;78.50;100614.56;6235477;23;20008;-80
2022/06/14 02:45:57;;;;;;;7.63;2.70;;;;;;;10.16;78.70;100618.41;6208137;23;20043;-80
2022/06/14 02:48:29;;;;;;;8.95;3.10;;;;;;;10.21;78.64;100614.94;6235593;23;20011;-79
2022/06/14 02:51:07;;;;;;;9.77;3.38;;;;;;;10.28;78.29;100614.81;6235105;23;20089;-79
2022/06/14 02:53:39;;;;;;;6.35;3.53;;;;;;;10.39;78.19;100607.69;6235493;23;20012;-79
2022/06/14 02:56:31;;;;;;;10.77;3.00;;;;;;;10.34;78.16;100613.84;6234241;23;20427;-79
2022/06/14 02:59:42;;;;;;;14.77;3.75;;;;;;;10.20;78.76;100613.31;6235383;23;20051;-79
2022/06/14 03:02:17;;;;;;;8.18;3.17;;;;;;;10.24;78.93;100619.09;6192483;23;20327;-79
2022/06/14 03:04:53;;;;;;;7.60;3.22;;;;;;;10.16;78.79;100618.41;6234909;23;20089;-79
2022/06/14 03:07:27;;;;;;;7.78;3.25;;;;;;;10.25;78.83;100610.69;6235128;23;20456;-79
2022/06/14 03:09:53;;;;;;;5.72;2.83;;;;;;;10.25;78.79;100609.88;6235223;23;20008;-80
2022/06/14 03:13:12;;;;;;;10.20;3.83;;;;;;;10.19;78.69;100610.84;6234802;23;20469;-80
2022/06/14 03:15:48;;;;;;;7.80;3.10;;;;;;;10.11;79.14;100618.28;6141079;23;20322;-79
2022/06/14 03:18:34;;;;;;;7.25;3.33;;;;;;;10.46;77.81;100611.09;6221897;23;20032;-79
2022/06/14 03:21:18;;;;;;;8.40;3.65;;;;;;;10.20;78.35;100613.31;6234909;23;20012;-80
2022/06/14 03:23:52;;;;;;;9.27;3.35;;;;;;;9.97;79.44;100620.47;6237191;23;20011;-79
2022/06/14 03:26:49;;;;;;;7.22;3.00;;;;;;;9.80;80.31;100615.75;6205664;23;20059;-79
2022/06/14 03:29:24;;;;;;;8.68;3.85;;;;;;;9.76;80.46;100617.28;6206807;23;20015;-79
2022/06/14 03:32:00;;;;;;;7.38;2.88;;;;;;;9.84;80.44;100632.47;6206782;23;20091;-79
2022/06/14 03:34:35;;;;;;;11.93;4.72;;;;;;;10.00;79.56;100624.59;6206640;23;20506;-78
2022/06/14 03:37:02;;;;;;;8.93;3.17;;;;;;;9.79;80.19;100618.72;6206523;23;20012;-79
2022/06/14 03:39:34;;;;;;;7.93;3.08;;;;;;;9.74;80.52;100621.34;6206812;23;20012;-79
2022/06/14 03:42:03;;;;;;;11.40;4.72;;;;;;;9.63;81.43;100632.00;6206275;23;20009;-80
2022/06/14 03:44:30;;;;;;;10.88;3.67;;;;;;;9.62;81.38;100616.69;6206812;23;20106;-79
2022/06/14 03:47:14;;;;;;;7.18;3.42;;;;;;;9.76;80.75;100620.00;6206366;23;20519;-78
2022/06/14 03:49:45;;;;;;;8.48;3.03;;;;;;;9.86;80.17;100613.16;6206684;23;20004;-79
2022/06/14 03:52:35;;;;;;;13.65;4.05;;;;;;;9.92;80.37;100612.19;6206502;23;20005;-79
2022/06/14 03:55:33;;;;;;;19.08;4.07;;;;;;;9.99;80.68;100606.59;6206587;23;20017;-80
2022/06/14 03:58:23;;;;;;;10.35;3.10;;;;;;;9.84;80.86;100610.66;6206546;23;20103;-79
2022/06/14 04:01:09;;;;;;;10.35;3.80;;;;;;;9.83;81.42;100619.06;6206735;23;20327;-80
2022/06/14 04:04:00;;;;;;;14.95;4.05;;;;;;;9.69;82.11;100611.97;6206157;23;20004;-79
2022/06/14 04:06:45;;;;;;;7.30;3.00;;;;;;;9.82;82.04;100620.97;6206325;23;20016;-79
2022/06/14 04:09:42;;;;;;;13.85;4.68;;;;;;;9.91;81.73;100616.81;6206436;23;20012;-79
2022/06/14 04:12:25;;;;;;;8.90;3.67;;;;;;;9.87;82.09;100617.50;6203805;23;20004;-80
2022/06/14 04:15:04;;;;;;;10.05;3.63;;;;;;;9.87;82.24;100615.63;6205705;23;20005;-79
2022/06/14 04:17:54;;;;;;;12.85;4.25;;;;;;;10.13;81.33;100615.31;6206060;23;20071;-79
2022/06/14 04:20:19;;;;;;;10.20;4.05;;;;;;;10.26;81.08;100611.50;6205790;23;20150;-79
2022/06/14 04:22:56;;;;;;;11.73;5.93;;;;;;;10.16;81.73;100604.78;6206220;23;20316;-79
2022/06/14 04:25:40;;;;;;;12.32;4.22;;;;;;;10.20;81.94;100617.94;6224339;23;20110;-79
2022/06/14 04:28:24;;;;;;;9.88;3.17;;;;;;;10.28;81.82;100609.38;6236053;23;20008;-79
2022/06/14 04:30:59;;;;;;;7.18;4.45;;;;;;;10.51;81.18;100607.66;6236122;23;20099;-79
2022/06/14 04:33:48;;;;;;;7.40;3.78;;;;;;;10.67;80.20;100605.22;6235838;23;20418;-79
2022/06/14 04:36:22;;;;;;;8.75;3.40;;;;;;;10.79;80.36;100608.72;6235635;23;20260;-79
2022/06/14 04:38:54;;;;;;;7.68;3.22;;;;;;;10.83;79.92;100604.44;6236063;23;20012;-79
2022/06/14 04:41:42;;;;;;;8.75;3.50;;;;;;;10.95;79.45;100596.16;6236087;23;20035;-80
2022/06/14 04:44:26;;;;;;;25.20;5.43;;;;;;;10.89;80.31;100607.22;6235809;23;20026;-79
2022/06/14 04:46:58;;;;;;;18.48;4.90;;;;;;;11.04;79.77;100604.78;6235920;23;20000;-80
2022/06/14 04:49:48;;;;;;;12.43;4.55;;;;;;;11.18;79.35;100604.44;6235668;23;20091;-79
2022/06/14 04:52:22;;;;;;;10.57;3.13;;;;;;;11.32;79.56;100611.22;6235965;23;20014;-79
2022/06/14 04:54:56;;;;;;;11.88;4.07;;;;;;;11.30;79.29;100613.38;6236211;23;20004;-79
2022/06/14 04:57:30;;;;;;;18.75;4.78;;;;;;;11.35;79.31;100609.09;6235678;23;20012;-80
2022/06/14 05:00:10;;;;;;;6.82;3.55;;;;;;;11.39;78.96;100604.78;6235721;23;20056;-79
2022/06/14 05:02:41;;;;;;;11.20;3.90;;;;;;;11.67;77.82;100600.25;6236428;23;20030;-80
2022/06/14 05:05:12;;;;;;;11.05;4.25;;;;;;;11.73;77.94;100602.00;6235146;23;20217;-79
2022/06/14 05:07:49;;;;;;;10.05;3.55;;;;;;;11.82;77.32;100605.09;6236095;23;20008;-80
2022/06/14 05:10:35;;;;;;;15.85;4.32;;;;;;;11.78;77.17;100603.94;6235283;23;20071;-80
2022/06/14 05:13:00;;;;;;;12.60;4.68;;;;;;;11.88;77.19;100590.41;6230177;23;20114;-79
2022/06/14 05:15:53;;;;;;;9.90;4.37;;;;;;;12.09;76.27;100595.31;6235154;23;20075;-79
2022/06/14 05:18:35;;;;;;;10.60;3.72;;;;;;;12.09;76.34;100595.31;6208645;23;20004;-79
2022/06/14 05:21:13;;;;;;;9.13;4.32;;;;;;;12.20;75.99;100605.34;6235216;23;20007;-79
2022/06/14 05:23:45;;;;;;;11.25;4.53;;;;;;;12.22;76.18;100594.97;6235410;23;20335;-79
2022/06/14 05:26:34;;;;;;;9.27;3.42;;;;;;;12.32;76.16;100601.63;6234256;23;20016;-81
2022/06/14 05:29:18;;;;;;;11.75;4.70;;;;;;;12.67;75.03;100600.34;6235884;23;20054;-80
2022/06/14 05:31:49;;;;;;;7.93;3.83;;;;;;;12.65;75.51;100605.25;6233941;23;20004;-80
2022/06/14 05:34:22;;;;;;;12.25;3.67;;;;;;;12.90;74.85;100606.59;6236173;23;20331;-81
2022/06/14 05:36:54;;;;;;;6.28;3.42;;;;;;;12.95;73.46;100600.34;6235369;23;19996;-80
2022/06/14 05:39:46;;;;;;;14.55;4.20;;;;;;;12.82;72.16;100618.84;6235725;23;20019;-79
2022/06/14 05:42:20;;;;;;;10.27;3.78;;;;;;;12.92;71.39;100612.63;6223164;23;20008;-80
2022/06/14 05:44:49;;;;;;;8.35;3.85;;;;;;;12.95;71.24;100617.59;6236050;23;20011;-81
2022/06/14 05:47:21;;;;;;;12.55;3.40;;;;;;;13.16;71.26;100622.44;6235366;23;20012;-80
2022/06/14 05:49:52;;;;;;;13.68;3.63;;;;;;;13.24;70.42;100621.13;6236259;23;20020;-80
2022/06/14 05:52:48;;;;;;;9.73;3.72;;;;;;;13.35;70.57;100627.47;6236128;23;20119;-80
2022/06/14 05:55:23;;;;;;;13.95;5.20;;;;;;;13.48;70.17;100623.47;6235304;23;20532;-81
2022/06/14 05:58:00;;;;;;;16.83;6.00;;;;;;;13.58;70.57;100634.53;6236915;23;20481;-80
2022/06/14 06:00:31;;;;;;;14.93;5.40;;;;;;;13.64;69.92;100632.66;6236492;23;20029;-81
2022/06/14 06:03:15;;;;;;;11.85;5.05;;;;;;;13.78;69.14;100635.75;6236569;23;20046;-85
2022/06/14 06:05:52;;;;;;;15.05;5.22;;;;;;;13.70;71.67;100636.25;6235465;23;20015;-82
2022/06/14 06:08:17;;;;;;;14.10;4.80;;;;;;;13.73;70.19;100635.72;6236034;23;20014;-82
2022/06/14 06:10:47;;;;;;;11.60;4.60;;;;;;;13.61;71.41;100631.25;6235692;23;20008;-81
2022/06/14 06:13:23;;;;;;;12.55;5.95;;;;;;;13.68;71.62;100630.19;6236091;23;20012;-81
2022/06/14 06:15:53;;;;;;;12.40;6.50;;;;;;;13.87;70.46;100636.88;6235042;23;19996;-80
2022/06/14 06:18:38;;;;;;;18.33;6.05;;;;;;;13.98;69.94;100634.19;6235252;23;20016;-80
2022/06/14 06:21:30;;;;;;;18.80;7.55;;;;;;;14.01;69.43;100633.69;6236755;23;20325;-80
2022/06/14 06:24:19;;;;;;;16.90;6.15;;;;;;;14.18;68.06;100636.22;6206874;23;20012;-81
2022/06/14 06:26:51;;;;;;;28.08;8.13;;;;;;;14.20;67.82;100638.69;6234507;23;20012;-84
2022/06/14 06:29:54;;;;;;;24.33;7.30;;;;;;;14.33;67.46;100637.38;6235576;23;20336;-82
2022/06/14 06:32:21;;;;;;;18.05;6.47;;;;;;;14.45;66.43;100628.91;6206344;23;20032;-80
2022/06/14 06:34:49;;;;;;;15.13;5.65;;;;;;;14.29;66.00;100637.09;6234341;23;20383;-81
2022/06/14 06:37:22;;;;;;;19.20;5.93;;;;;;;14.39;66.11;100641.78;6234220;23;20000;-80
2022/06/14 06:39:55;;;;;;;16.55;4.90;;;;;;;14.45;65.55;100639.88;6207922;23;20330;-79
2022/06/14 06:42:31;;;;;;;14.07;5.07;;;;;;;14.48;65.33;100639.34;6234476;23;20011;-80
2022/06/14 06:45:08;;;;;;;15.93;6.78;;;;;;;14.35;66.68;100641.50;6234381;23;20458;-81
2022/06/14 06:47:39;;;;;;;11.25;5.95;;;;;;;14.63;66.06;100645.94;6234980;23;20016;-80
2022/06/14 06:50:44;;;;;;;12.55;4.63;;;;;;;14.59;66.29;100645.69;6235056;23;20015;-80
2022/06/14 06:53:12;;;;;;;9.05;3.13;;;;;;;14.70;64.84;100652.03;6058461;23;20410;-80
2022/06/14 06:55:43;;;;;;;10.93;3.53;;;;;;;14.73;64.88;100651.47;6203694;23;20008;-79
2022/06/14 06:58:36;;;;;;;13.95;4.05;;;;;;;14.74;65.55;100650.38;6236632;23;20012;-80
2022/06/14 07:01:15;;;;;;;10.88;3.47;;;;;;;14.82;64.38;100647.13;6225280;23;20508;-80
2022/06/14 07:03:49;;;;;;;14.93;3.50;;;;;;;14.90;64.62;100658.66;6237191;23;20027;-79
2022/06/14 07:06:21;;;;;;;9.75;3.65;;;;;;;15.00;64.06;100647.72;6235806;23;20008;-80
2022/06/14 07:08:53;;;;;;;19.27;5.70;;;;;;;15.04;63.49;100651.56;6210090;23;20015;-80
2022/06/14 07:11:23;;;;;;;15.93;4.00;;;;;;;14.76;63.65;100645.44;6236689;23;20435;-80
2022/06/14 07:13:57;;;;;;;16.58;4.20;;;;;;;14.75;63.76;100648.44;6236789;23;20007;-80
2022/06/14 07:16:33;;;;;;;9.90;4.78;;;;;;;15.00;63.37;100652.38;6208796;23;20016;-80
2022/06/14 07:19:43;;;;;;;9.50;3.88;;;;;;;15.16;62.53;100642.22;6237010;23;20008;-81
2022/06/14 07:22:22;;;;;;;8.35;3.90;;;;;;;15.19;62.24;100643.59;6215744;23;20458;-80
2022/06/14 07:25:02;;;;;;;10.45;3.80;;;;;;;15.25;61.66;100645.25;6236303;23;20087;-80
2022/06/14 07:27:38;;;;;;;13.13;3.58;;;;;;;15.37;62.04;100647.72;6236945;23;20039;-79
2022/06/14 07:30:14;;;;;;;13.07;4.18;;;;;;;15.38;63.44;100649.34;6237143;23;20008;-80
2022/06/14 07:32:46;;;;;;;9.02;4.50;;;;;;;15.47;62.55;100650.47;6237093;23;20008;-79
2022/06/14 07:35:13;;;;;;;10.43;3.88;;;;;;;15.54;62.40;100641.09;6235724;23;20039;-80
2022/06/14 07:37:45;;;;;;;7.55;3.78;;;;;;;15.57;61.96;100641.38;6236702;23;20090;-79
2022/06/14 07:40:28;;;;;;;18.90;4.38;;;;;;;15.42;61.56;100641.41;6236737;23;20004;-80
2022/06/14 07:43:01;;;;;;;25.98;4.57;;;;;;;15.22;62.92;100649.34;6237273;23;20000;-80
2022/06/14 07:45:37;;;;;;;11.77;4.70;;;;;;;15.41;63.74;100648.81;6235544;23;20042;-80
2022/06/14 07:48:26;;;;;;;13.20;5.38;;;;;;;15.32;61.15;100644.94;6209837;23;20018;-79
2022/06/14 07:51:02;;;;;;;7.35;3.25;;;;;;;15.54;62.03;100638.34;6237404;23;20004;-80
2022/06/14 07:53:47;;;;;;;11.18;3.38;;;;;;;15.91;61.40;100631.66;6236941;23;20001;-80
2022/06/14 07:56:20;;;;;;;13.65;4.47;;;;;;;15.86;61.06;100635.25;6235368;23;20098;-80
2022/06/14 07:59:09;;;;;;;9.00;4.85;;;;;;;15.92;59.83;100641.56;6236649;23;20004;-81
2022/06/14 08:01:45;;;;;;;6.47;3.17;;;;;;;16.03;60.22;100625.06;6236866;23;20050;-79
2022/06/14 08:04:14;;;;;;;12.93;4.47;;;;;;;15.98;59.06;100628.63;6236365;23;20015;-80
2022/06/14 08:07:03;;;;;;;11.57;4.10;;;;;;;16.34;57.89;100622.16;6235318;23;20083;-81
2022/06/14 08:09:48;;;;;;;11.40;3.70;;;;;;;16.45;57.48;100626.50;6236065;23;20450;-80
2022/06/14 08:12:16;;;;;;;7.68;2.63;;;;;;;16.51;56.96;100623.75;6235913;23;20046;-80
2022/06/14 08:14:50;;;;;;;12.73;4.35;;;;;;;16.46;55.82;100621.81;6236467;23;20008;-80
2022/06/14 08:17:45;;;;;;;7.75;3.30;;;;;;;16.51;56.25;100623.75;6235691;23;20174;-80
2022/06/14 08:20:16;;;;;;;9.30;3.72;;;;;;;16.50;55.85;100628.41;6236408;23;20011;-80
2022/06/14 08:22:48;;;;;;;14.27;4.40;;;;;;;16.37;56.46;100613.38;6236398;23;20051;-80
2022/06/14 08:25:20;;;;;;;14.13;5.40;;;;;;;16.47;56.16;100622.66;6235289;23;20020;-80
2022/06/14 08:27:54;;;;;;;11.23;4.15;;;;;;;16.45;55.60;100615.50;6236013;23;20095;-79
2022/06/14 08:30:28;;;;;;;16.48;5.63;;;;;;;16.65;56.41;100619.25;6236298;23;20290;-81
2022/06/14 08:33:09;;;;;;;7.35;4.22;;;;;;;16.78;55.51;100614.22;6236139;23;20007;-80
2022/06/14 08:35:41;;;;;;;21.90;5.28;;;;;;;16.98;54.86;100620.69;6235470;23;20031;-80
2022/06/14 08:38:15;;;;;;;9.05;4.20;;;;;;;17.35;55.57;100612.97;6236250;23;20019;-80
2022/06/14 08:41:11;;;;;;;9.02;4.20;;;;;;;17.20;52.47;100613.91;6235608;23;20151;-81
2022/06/14 08:43:49;;;;;;;9.18;4.60;;;;;;;17.22;54.81;100608.94;6235727;23;20004;-80
2022/06/14 08:46:39;;;;;;;14.15;5.40;;;;;;;17.34;53.98;100601.09;6234665;23;20011;-79
2022/06/14 08:49:24;;;;;;;8.80;3.55;;;;;;;17.37;53.46;100608.78;6235986;23;20004;-81
2022/06/14 08:52:28;;;;;;;10.65;4.53;;;;;;;17.80;53.93;100600.91;6235934;23;20031;-80
2022/06/14 08:55:33;;;;;;;8.63;4.05;;;;;;;17.86;52.84;100599.72;6235173;23;20085;-80
2022/06/14 08:58:24;;;;;;;8.02;3.70;;;;;;;17.85;51.42;100598.94;6208702;23;20329;-80
2022/06/14 09:01:09;;;;;;;8.20;4.05;;;;;;;17.84;51.84;100601.94;6235207;23;20446;-79
2022/06/14 09:03:56;;;;;;;11.65;4.38;;;;;;;17.83;51.75;100600.31;6235494;23;20508;-80
2022/06/14 09:06:40;;;;;;;7.43;4.00;;;;;;;17.88;51.92;100604.97;6234629;23;20339;-81
2022/06/14 09:09:05;;;;;;;;;;;;;;;17.61;52.80;100605.22;6235997;23;20086;-79
2022/06/14 09:11:52;;;;;;;9.97;3.93;;;;;;;17.53;52.78;100600.38;6234948;23;20285;-81
2022/06/14 09:14:48;;;;;;;8.95;3.53;;;;;;;17.40;52.18;100599.13;6235094;23;20027;-79
2022/06/14 09:17:31;;;;;;;7.25;3.55;;;;;;;17.82;51.55;100591.22;6234195;23;20066;-80
2022/06/14 09:20:03;;;;;;;9.88;4.32;;;;;;;17.68;52.41;100598.56;6235187;23;20012;-80
2022/06/14 09:22:35;;;;;;;7.40;4.07;;;;;;;18.13;52.52;100590.03;6235105;23;20016;-80
2022/06/14 09:25:25;;;;;;;18.65;4.53;;;;;;;18.22;51.60;100589.41;6234553;23;20103;-80
2022/06/14 09:27:57;;;;;;;7.80;3.45;;;;;;;18.67;51.11;100594.56;6207810;23;20030;-81
2022/06/14 09:30:28;;;;;;;11.80;3.47;;;;;;;18.52;50.22;100588.16;6234981;23;20047;-80
2022/06/14 09:33:09;;;;;;;11.75;4.30;;;;;;;18.72;51.84;100596.41;6235533;23;20012;-80
2022/06/14 09:36:05;;;;;;;12.82;4.05;;;;;;;18.65;49.73;100599.56;6234781;23;20019;-80
2022/06/14 09:38:42;;;;;;;11.23;4.50;;;;;;;18.64;49.62;100592.38;6235538;23;20446;-81
2022/06/14 09:41:26;;;;;;;19.95;4.85;;;;;;;19.28;48.70;100593.03;6236768;23;20320;-81
2022/06/14 09:44:06;;;;;;;8.88;3.30;;;;;;;19.34;47.93;100586.31;6235346;23;20475;-80
2022/06/14 09:47:10;;;;;;;5.30;2.50;;;;;;;19.15;48.38;100594.63;6234073;23;20011;-80
2022/06/14 09:49:56;;;;;;;6.45;2.60;;;;;;;18.84;49.47;100598.69;6218467;23;20007;-81
2022/06/14 09:52:52;;;;;;;6.20;2.78;;;;;;;19.15;48.73;100592.69;6235155;23;20004;-81
2022/06/14 09:55:58;;;;;;;16.58;4.32;;;;;;;19.13;47.00;100598.50;6234016;23;20007;-80
2022/06/14 09:58:36;;;;;;;8.45;3.40;;;;;;;19.02;46.88;100597.03;6235295;23;20014;-80
2022/06/14 10:01:16;;;;;;;7.80;2.97;;;;;;;19.33;46.38;100590.19;6235133;23;20008;-81
2022/06/14 10:04:18;;;;;;;6.00;3.35;;;;;;;19.60;45.07;100592.19;6235242;23;20091;-80
2022/06/14 10:07:00;;;;;;;12.32;3.45;;;;;;;19.84;45.73;100584.78;6234277;23;19992;-79
2022/06/14 10:09:38;;;;;;;7.28;3.08;;;;;;;19.85;45.02;100588.38;6235281;23;20000;-80
2022/06/14 10:12:22;;;;;;;11.02;2.95;;;;;;;19.80;45.55;100586.53;6235144;23;20011;-80
2022/06/14 10:14:55;;;;;;;10.30;3.85;;;;;;;20.10;45.06;100581.50;6234722;23;20004;-81
2022/06/14 10:17:39;;;;;;;6.87;3.47;;;;;;;19.89;45.36;100578.34;6234912;23;20015;-80
2022/06/14 10:20:27;;;;;;;10.13;2.92;;;;;;;19.75;45.94;100583.88;6235005;23;20226;-80
2022/06/14 10:23:00;;;;;;;7.93;2.92;;;;;;;19.33;46.85;100581.88;6234909;23;20018;-80
2022/06/14 10:28:11;;;;;;;10.10;3.30;;;;;;;19.19;46.58;100582.69;6233893;23;20623;-81
2022/06/14 10:28:43;;;;;;;8.35;3.92;;;;;;;19.28;47.08;100591.09;6234680;23;20023;-80
2022/06/14 10:31:39;;;;;;;6.20;3.00;;;;;;;19.83;45.35;100569.34;6209207;23;20040;-81
2022/06/14 10:34:14;;;;;;;10.95;3.80;;;;;;;20.36;46.08;100569.06;6237268;23;20417;-80
2022/06/14 10:37:20;;;;;;;14.23;4.30;;;;;;;20.60;44.09;100567.97;6236323;23;20023;-81
2022/06/14 10:40:03;;;;;;;14.82;3.58;;;;;;;20.90;43.79;100567.50;6237523;23;20004;-80
2022/06/14 10:42:39;;;;;;;7.70;3.97;;;;;;;21.16;42.95;100569.66;6237286;23;20004;-80
2022/06/14 10:45:16;;;;;;;7.53;3.22;;;;;;;21.27;43.14;100554.41;6236563;23;20004;-80
2022/06/14 10:48:11;;;;;;;7.05;3.78;;;;;;;21.64;42.98;100556.16;6236985;23;20008;-81
2022/06/14 10:50:42;;;;;;;8.70;4.40;;;;;;;21.38;43.28;100552.13;6216020;23;20199;-81
2022/06/14 10:53:18;;;;;;;12.38;3.33;;;;;;;21.08;42.90;100547.13;6237018;23;20377;-80
2022/06/14 10:56:03;;;;;;;14.25;4.57;;;;;;;21.13;43.20;100539.81;6235363;23;20385;-80
2022/06/14 10:59:03;;;;;;;14.55;4.88;;;;;;;21.38;42.85;100540.25;6236812;23;20513;-81
2022/06/14 11:01:58;;;;;;;9.55;3.85;;;;;;;21.69;42.93;100542.97;6237150;23;20008;-80
2022/06/14 11:04:35;;;;;;;13.85;4.80;;;;;;;21.46;41.47;100533.91;6236426;23;20004;-80
2022/06/14 11:07:15;;;;;;;8.25;3.38;;;;;;;21.77;42.83;100533.03;6235578;23;20008;-79
2022/06/14 11:09:55;;;;;;;6.38;3.17;;;;;;;22.11;43.43;100525.09;6235981;23;20458;-80
2022/06/14 11:12:53;;;;;;;8.82;3.85;;;;;;;22.09;42.68;100529.38;6235804;23;20338;-80
2022/06/14 11:15:27;;;;;;;8.50;3.53;;;;;;;22.06;41.74;100525.28;6235241;23;19996;-80
2022/06/14 11:18:19;;;;;;;9.50;3.67;;;;;;;22.24;41.86;100517.78;6236907;23;20042;-80
2022/06/14 11:21:18;;;;;;;14.18;6.03;;;;;;;22.45;41.02;100500.47;6236964;23;20501;-81
2022/06/14 11:23:59;;;;;;;8.20;4.03;;;;;;;22.59;44.38;100510.56;6236642;23;20046;-80
2022/06/14 11:26:45;;;;;;;12.23;5.05;;;;;;;22.72;41.52;100511.56;6234714;23;20439;-80
2022/06/14 11:29:41;;;;;;;12.48;4.22;;;;;;;22.70;40.66;100511.06;6236417;23;20004;-81
2022/06/14 11:32:13;;;;;;;8.85;3.85;;;;;;;22.74;39.72;100504.50;6236974;23;20016;-81
2022/06/14 11:34:41;;;;;;;10.10;4.03;;;;;;;22.82;40.00;100499.28;6209334;23;20015;-82
2022/06/14 11:37:43;;;;;;;8.70;4.40;;;;;;;22.97;39.48;100504.28;6235380;23;20008;-81
2022/06/14 11:40:23;;;;;;;7.45;4.30;;;;;;;21.88;40.64;100499.47;6208814;23;20069;-81
2022/06/14 11:43:18;;;;;;;7.05;3.80;;;;;;;22.07;40.81;100498.34;6235735;23;20008;-82
2022/06/14 11:45:57;;;;;;;7.28;3.60;;;;;;;22.36;40.23;100502.41;6235473;23;20362;-81
2022/06/14 11:48:47;;;;;;;6.38;3.85;;;;;;;21.96;40.19;100503.38;6236009;23;20338;-80
2022/06/14 11:51:35;;;;;;;9.68;4.35;;;;;;;21.91;40.36;100494.06;6235907;23;20074;-81
2022/06/14 11:54:50;;;;;;;11.75;4.72;;;;;;;22.44;40.90;100500.75;6236233;23;20014;-81
2022/06/14 11:57:39;;;;;;;10.00;4.15;;;;;;;22.66;39.11;100499.78;6141592;23;20033;-81
2022/06/14 12:00:37;;;;;;;6.95;3.85;;;;;;;22.93;39.39;100485.81;6142265;23;20019;-80
2022/06/14 12:03:15;;;;;;;10.90;5.38;;;;;;;22.72;38.27;100481.00;6227960;23;20008;-80
2022/06/14 12:05:50;;;;;;;16.45;6.50;;;;;;;23.22;38.02;100475.91;6208421;23;20105;-81
2022/06/14 12:08:46;;;;;;;12.98;4.75;;;;;;;23.69;38.32;100477.00;6236679;23;20004;-81
2022/06/14 12:11:23;;;;;;;8.30;5.10;;;;;;;23.60;37.84;100477.03;6235968;23;20004;-80
2022/06/14 12:14:06;;;;;;;16.92;5.47;;;;;;;23.40;38.00;100479.41;6236284;23;20012;-80
2022/06/14 12:16:38;;;;;;;8.77;3.63;;;;;;;22.92;39.20;100473.91;6236343;23;20008;-80
2022/06/14 12:19:22;;;;;;;10.25;5.40;;;;;;;23.36;38.80;100472.91;6236248;23;20434;-80
2022/06/14 12:21:51;;;;;;;;;;;;;;;23.70;37.64;100466.66;6237156;23;20039;-81
2022/06/14 12:26:34;;;;;;;9.90;4.18;;;;;;;23.65;38.94;100465.72;6235552;23;19915;-80